Time;durP1;ratioP1;P1;durP2;ratioP2;P2;SDS_P1;SDS_P2;PMS_P1;PMS_P2;Temp;Humidity;BMP_temperature;BMP_pressure;BME280_temperature;BME280_humidity;BME280_pressure;Samples;Min_cycle;Max_cycle;Signal;HPM_P1;HPM_P2
2023/06/09 00:01:11;;;;;;;13.05;9.20;;;;;;;;;;5016570;28;20018;-62
2023/06/09 00:03:37;;;;;;;;;;;;;;;;;;5029968;28;20025;-62
2023/06/09 00:06:02;;;;;;;17.83;8.93;;;;;;;;;;5027330;28;19924;-62
2023/06/09 00:08:28;;;;;;;13.38;8.48;;;;;;;;;;5027743;28;20017;-61
2023/06/09 00:10:53;;;;;;;14.57;8.48;;;;;;;;;;5032009;28;20055;-61
2023/06/09 00:13:20;;;;;;;11.77;7.90;;;;;;;;;;5026734;28;20024;-62
2023/06/09 00:15:45;;;;;;;11.93;7.93;;;;;;;;;;5016282;28;20624;-61
2023/06/09 00:18:14;;;;;;;10.48;7.93;;;;;;;;;;5030104;28;20026;-61
2023/06/09 00:20:41;;;;;;;10.63;7.07;;;;;;;;;;5033307;28;20029;-61
2023/06/09 00:23:07;;;;;;;11.25;8.07;;;;;;;;;;5027080;28;20025;-62
2023/06/09 00:25:33;;;;;;;11.85;7.63;;;;;;;;;;5026760;28;20046;-61
2023/06/09 00:27:58;;;;;;;11.07;7.23;;;;;;;;;;5029933;28;20070;-61
2023/06/09 00:30:23;;;;;;;11.57;7.85;;;;;;;;;;5019222;28;20033;-60
2023/06/09 00:32:48;;;;;;;10.97;8.17;;;;;;;;;;5016930;28;20148;-61
2023/06/09 00:35:14;;;;;;;10.65;7.57;;;;;;;;;;5024590;28;20079;-61
2023/06/09 00:37:39;;;;;;;11.88;7.75;;;;;;;;;;5025718;28;20013;-61
2023/06/09 00:40:04;;;;;;;10.87;7.20;;;;;;;;;;5030895;28;20013;-61
2023/06/09 00:42:30;;;;;;;11.00;7.32;;;;;;;;;;5027383;28;20024;-61
2023/06/09 00:44:55;;;;;;;10.18;7.10;;;;;;;;;;5024676;28;20451;-60
2023/06/09 00:47:21;;;;;;;11.50;7.27;;;;;;;;;;5026551;28;20510;-61
2023/06/09 00:49:46;;;;;;;10.82;7.35;;;;;;;;;;5023828;28;20440;-60
2023/06/09 00:52:11;;;;;;;14.33;8.57;;;;;;;;;;5023801;28;20039;-62
2023/06/09 00:54:36;;;;;;;10.07;7.25;;;;;;;;;;5028986;28;20117;-61
2023/06/09 00:57:03;;;;;;;12.73;7.57;;;;;;;;;;5025731;28;20021;-60
2023/06/09 00:59:29;;;;;;;11.85;7.40;;;;;;;;;;5018522;28;20022;-60
2023/06/09 01:01:54;;;;;;;11.23;7.53;;;;;;;;;;5016043;28;20488;-60
2023/06/09 01:04:20;;;;;;;12.18;7.13;;;;;;;;;;5027188;28;20022;-62
2023/06/09 01:06:45;;;;;;;11.17;7.93;;;;;;;;;;5024967;28;20440;-61
2023/06/09 01:09:15;;;;;;;12.87;7.53;;;;;;;;;;5022386;28;20026;-60
2023/06/09 01:11:48;;;;;;;11.93;7.95;;;;;;;;;;5029627;28;20448;-61
2023/06/09 01:14:34;;;;;;;11.50;7.47;;;;;;;;;;5028525;28;20108;-61
2023/06/09 01:17:07;;;;;;;10.55;7.22;;;;;;;;;;5008857;28;20098;-62
2023/06/09 01:19:36;;;;;;;13.65;7.07;;;;;;;;;;5029377;28;20108;-60
2023/06/09 01:22:08;;;;;;;9.85;6.88;;;;;;;;;;5025994;28;20017;-62
2023/06/09 01:24:52;;;;;;;11.38;7.20;;;;;;;;;;5024235;28;20026;-62
2023/06/09 01:27:18;;;;;;;12.63;7.57;;;;;;;;;;5025131;28;20056;-61
2023/06/09 01:29:44;;;;;;;12.32;7.75;;;;;;;;;;5022216;28;20553;-61
2023/06/09 01:32:09;;;;;;;11.27;7.40;;;;;;;;;;5016191;28;20021;-61
2023/06/09 01:34:34;;;;;;;11.98;7.30;;;;;;;;;;5023449;28;20033;-60
2023/06/09 01:37:00;;;;;;;10.07;7.32;;;;;;;;;;5033265;28;20033;-61
2023/06/09 01:39:26;;;;;;;11.30;7.10;;;;;;;;;;5025987;28;20113;-60
2023/06/09 01:41:51;;;;;;;12.57;7.63;;;;;;;;;;5016668;28;20144;-61
2023/06/09 01:44:16;;;;;;;11.45;7.80;;;;;;;;;;5011915;28;20032;-61
2023/06/09 01:46:41;;;;;;;13.32;7.93;;;;;;;;;;5011702;28;20036;-61
2023/06/09 01:49:07;;;;;;;10.13;7.30;;;;;;;;;;5020179;28;20022;-60
2023/06/09 01:51:32;;;;;;;11.00;6.97;;;;;;;;;;5027437;28;20021;-61
2023/06/09 01:54:07;;;;;;;15.20;8.95;;;;;;;;;;5029556;28;20975;-60
2023/06/09 01:56:43;;;;;;;11.50;8.70;;;;;;;;;;5018784;28;20026;-60
2023/06/09 01:59:11;;;;;;;12.23;7.63;;;;;;;;;;5024288;28;20028;-61
2023/06/09 02:01:36;;;;;;;11.30;8.02;;;;;;;;;;5018905;28;20017;-60
2023/06/09 02:04:02;;;;;;;12.80;8.07;;;;;;;;;;5024480;28;20367;-61
2023/06/09 02:06:27;;;;;;;10.70;7.32;;;;;;;;;;5026858;28;20029;-60
2023/06/09 02:08:52;;;;;;;11.40;7.30;;;;;;;;;;5026843;28;20026;-61
2023/06/09 02:11:18;;;;;;;12.30;7.50;;;;;;;;;;5026335;28;20057;-61
2023/06/09 02:13:43;;;;;;;10.87;7.30;;;;;;;;;;5023192;28;20551;-60
2023/06/09 02:16:08;;;;;;;12.80;7.70;;;;;;;;;;5022982;28;20028;-60
2023/06/09 02:18:33;;;;;;;12.52;8.07;;;;;;;;;;5024513;28;20051;-61
2023/06/09 02:20:58;;;;;;;11.87;7.73;;;;;;;;;;5025980;28;20083;-61
2023/06/09 02:23:24;;;;;;;11.55;7.90;;;;;;;;;;5029953;28;20018;-60
2023/06/09 02:25:49;;;;;;;10.95;7.45;;;;;;;;;;5018118;28;20029;-60
2023/06/09 02:28:16;;;;;;;17.33;8.17;;;;;;;;;;5027593;28;20025;-60
2023/06/09 02:30:41;;;;;;;10.40;7.05;;;;;;;;;;5024224;28;20555;-61
2023/06/09 02:33:06;;;;;;;11.35;7.63;;;;;;;;;;5025120;28;20117;-60
2023/06/09 02:35:32;;;;;;;15.40;7.50;;;;;;;;;;5020284;28;20041;-61
2023/06/09 02:38:00;;;;;;;16.30;8.17;;;;;;;;;;5018802;28;20022;-61
2023/06/09 02:40:26;;;;;;;11.52;7.47;;;;;;;;;;5027237;28;20014;-61
2023/06/09 02:42:51;;;;;;;11.13;7.57;;;;;;;;;;5029091;28;20105;-61
2023/06/09 02:45:17;;;;;;;10.50;7.75;;;;;;;;;;5024914;28;20100;-62
2023/06/09 02:47:42;;;;;;;11.07;7.75;;;;;;;;;;5016970;28;20033;-60
2023/06/09 02:50:08;;;;;;;11.05;7.75;;;;;;;;;;5017452;28;20045;-61
2023/06/09 02:52:34;;;;;;;12.85;8.75;;;;;;;;;;5026291;28;20037;-61
2023/06/09 02:54:59;;;;;;;13.15;7.95;;;;;;;;;;5021353;28;20049;-60
2023/06/09 02:57:25;;;;;;;11.17;8.70;;;;;;;;;;5027366;28;20481;-62
2023/06/09 02:59:51;;;;;;;13.32;8.43;;;;;;;;;;5018832;28;20497;-59
2023/06/09 03:02:16;;;;;;;12.50;8.53;;;;;;;;;;5026966;28;20021;-62
2023/06/09 03:04:42;;;;;;;12.10;8.00;;;;;;;;;;5023469;28;20029;-62
2023/06/09 03:07:13;;;;;;;12.10;8.15;;;;;;;;;;5030807;28;20025;-62
2023/06/09 03:09:41;;;;;;;12.25;7.82;;;;;;;;;;5017322;28;20025;-63
2023/06/09 03:12:06;;;;;;;10.30;7.13;;;;;;;;;;5026836;28;20010;-62
2023/06/09 03:14:32;;;;;;;11.10;7.35;;;;;;;;;;5021325;28;20104;-63
2023/06/09 03:16:58;;;;;;;12.00;8.07;;;;;;;;;;5018987;28;20114;-59
2023/06/09 03:19:23;;;;;;;11.13;7.57;;;;;;;;;;5018878;28;20527;-62
2023/06/09 03:21:48;;;;;;;13.97;8.60;;;;;;;;;;5022895;28;20030;-62
2023/06/09 03:24:14;;;;;;;12.98;7.35;;;;;;;;;;5024832;28;20029;-62
2023/06/09 03:26:39;;;;;;;11.40;8.05;;;;;;;;;;5022204;28;20026;-62
2023/06/09 03:29:04;;;;;;;11.07;7.60;;;;;;;;;;5030881;28;20018;-61
2023/06/09 03:31:30;;;;;;;11.98;7.13;;;;;;;;;;5029391;28;20029;-60
2023/06/09 03:33:56;;;;;;;12.93;8.05;;;;;;;;;;5027535;28;20424;-62
2023/06/09 03:36:22;;;;;;;;;;;;;;;;;;5024601;28;20396;-61
2023/06/09 03:38:48;;;;;;;12.82;7.40;;;;;;;;;;5022365;28;19910;-61
2023/06/09 03:41:13;;;;;;;11.33;7.77;;;;;;;;;;5026161;28;20104;-61
2023/06/09 03:43:38;;;;;;;12.90;7.55;;;;;;;;;;5032967;28;20025;-61
2023/06/09 03:46:03;;;;;;;11.05;7.20;;;;;;;;;;5030736;28;20089;-61
2023/06/09 03:48:28;;;;;;;9.90;6.85;;;;;;;;;;5039978;28;20025;-61
2023/06/09 03:50:53;;;;;;;10.40;7.57;;;;;;;;;;5017725;28;20477;-61
2023/06/09 03:53:19;;;;;;;11.67;7.77;;;;;;;;;;5021571;28;20061;-60
2023/06/09 03:55:44;;;;;;;10.40;7.05;;;;;;;;;;5032522;28;20052;-61
2023/06/09 03:58:12;;;;;;;8.73;6.60;;;;;;;;;;5030209;28;20061;-59
2023/06/09 04:00:37;;;;;;;10.25;6.97;;;;;;;;;;5032107;28;20060;-61
2023/06/09 04:03:02;;;;;;;10.90;7.90;;;;;;;;;;5031462;28;20095;-61
2023/06/09 04:05:27;;;;;;;10.27;6.95;;;;;;;;;;5028218;28;20033;-60
2023/06/09 04:07:52;;;;;;;9.70;7.00;;;;;;;;;;5029266;28;20017;-61
2023/06/09 04:10:17;;;;;;;12.53;7.40;;;;;;;;;;5025010;28;20049;-61
2023/06/09 04:12:43;;;;;;;11.73;6.73;;;;;;;;;;5023153;28;20021;-61
2023/06/09 04:15:09;;;;;;;11.83;7.10;;;;;;;;;;5022998;28;20021;-61
2023/06/09 04:17:36;;;;;;;10.80;6.50;;;;;;;;;;5033300;28;20037;-60
2023/06/09 04:20:04;;;;;;;10.82;6.70;;;;;;;;;;5025209;28;20022;-61
2023/06/09 04:22:30;;;;;;;11.95;6.57;;;;;;;;;;5018641;28;20525;-61
2023/06/09 04:24:55;;;;;;;11.27;7.72;;;;;;;;;;5021669;28;20094;-61
2023/06/09 04:27:23;;;;;;;11.25;6.95;;;;;;;;;;5025459;28;20017;-60
2023/06/09 04:29:49;;;;;;;10.65;6.70;;;;;;;;;;5027397;28;20040;-61
2023/06/09 04:32:15;;;;;;;12.80;7.88;;;;;;;;;;5025479;28;20017;-61
2023/06/09 04:34:40;;;;;;;10.10;6.80;;;;;;;;;;5016805;28;20017;-60
2023/06/09 04:37:08;;;;;;;10.07;6.50;;;;;;;;;;5018560;28;20106;-61
2023/06/09 04:39:34;;;;;;;10.30;6.20;;;;;;;;;;5013147;28;20033;-59
2023/06/09 04:42:04;;;;;;;12.18;7.43;;;;;;;;;;5015351;28;20030;-59
2023/06/09 04:44:29;;;;;;;11.43;7.28;;;;;;;;;;5028877;28;20018;-60
2023/06/09 04:46:54;;;;;;;9.65;6.68;;;;;;;;;;5017898;28;20092;-61
2023/06/09 04:49:20;;;;;;;10.80;6.53;;;;;;;;;;5023565;28;20051;-60
2023/06/09 04:51:49;;;;;;;13.63;6.88;;;;;;;;;;5014907;28;20540;-60
2023/06/09 04:54:18;;;;;;;9.95;7.10;;;;;;;;;;5017622;28;20076;-59
2023/06/09 04:56:43;;;;;;;10.40;6.68;;;;;;;;;;5027722;28;20021;-59
2023/06/09 04:59:12;;;;;;;10.90;7.07;;;;;;;;;;5040872;28;20078;-61
2023/06/09 05:01:38;;;;;;;9.23;6.88;;;;;;;;;;5017739;28;20057;-60
2023/06/09 05:04:04;;;;;;;14.82;7.10;;;;;;;;;;5028295;28;20112;-60
2023/06/09 05:06:29;;;;;;;10.27;7.32;;;;;;;;;;5019017;28;20291;-61
2023/06/09 05:08:55;;;;;;;10.33;7.37;;;;;;;;;;5011787;28;20790;-61
2023/06/09 05:11:20;;;;;;;11.20;6.97;;;;;;;;;;5016181;28;20121;-60
2023/06/09 05:13:46;;;;;;;11.98;7.85;;;;;;;;;;5026050;28;20025;-60
2023/06/09 05:16:11;;;;;;;13.40;7.15;;;;;;;;;;5015953;28;20061;-60
2023/06/09 05:18:36;;;;;;;11.57;6.67;;;;;;;;;;5023970;28;20022;-61
2023/06/09 05:21:02;;;;;;;11.75;7.53;;;;;;;;;;5027516;28;20103;-61
2023/06/09 05:23:27;;;;;;;12.98;8.73;;;;;;;;;;5032706;28;20051;-61
2023/06/09 05:25:52;;;;;;;12.65;8.30;;;;;;;;;;5015020;28;20512;-61
2023/06/09 05:28:17;;;;;;;12.13;7.38;;;;;;;;;;5030550;28;20018;-60
2023/06/09 05:30:42;;;;;;;13.13;7.63;;;;;;;;;;5030043;28;20116;-60
2023/06/09 05:33:07;;;;;;;12.40;7.63;;;;;;;;;;5031559;28;20389;-60
2023/06/09 05:35:33;;;;;;;10.47;6.93;;;;;;;;;;5032310;28;20052;-60
2023/06/09 05:37:58;;;;;;;11.83;8.47;;;;;;;;;;5032297;28;20017;-61
2023/06/09 05:40:23;;;;;;;12.03;8.00;;;;;;;;;;5031852;28;20020;-61
2023/06/09 05:42:49;;;;;;;12.33;7.87;;;;;;;;;;5027934;28;20061;-61
2023/06/09 05:45:15;;;;;;;13.43;9.35;;;;;;;;;;5031047;28;20051;-62
2023/06/09 05:47:40;;;;;;;10.27;7.57;;;;;;;;;;5031926;28;20104;-61
2023/06/09 05:50:05;;;;;;;12.57;8.40;;;;;;;;;;5031261;28;20097;-61
2023/06/09 05:52:30;;;;;;;11.20;8.30;;;;;;;;;;5017796;28;20107;-62
2023/06/09 05:54:56;;;;;;;13.70;7.90;;;;;;;;;;5016515;28;20018;-63
2023/06/09 05:57:22;;;;;;;;;;;;;;;;;;5026120;28;20032;-61
2023/06/09 05:59:47;;;;;;;12.60;7.43;;;;;;;;;;5039553;28;19913;-58
2023/06/09 06:02:13;;;;;;;14.33;8.77;;;;;;;;;;5029903;28;20437;-62
2023/06/09 06:04:58;;;;;;;11.02;8.07;;;;;;;;;;5018700;28;20057;-62
2023/06/09 06:07:23;;;;;;;11.20;8.20;;;;;;;;;;5020256;28;20037;-62
2023/06/09 06:09:48;;;;;;;13.95;8.02;;;;;;;;;;5021083;28;20034;-62
2023/06/09 06:12:14;;;;;;;13.93;8.43;;;;;;;;;;5020015;28;20053;-62
2023/06/09 06:14:39;;;;;;;12.97;8.83;;;;;;;;;;5026524;28;20028;-62
2023/06/09 06:17:04;;;;;;;12.23;9.10;;;;;;;;;;5028792;28;20025;-62
2023/06/09 06:19:29;;;;;;;11.77;7.93;;;;;;;;;;5025459;28;20029;-62
2023/06/09 06:21:54;;;;;;;13.87;8.80;;;;;;;;;;5017785;28;20105;-62
2023/06/09 06:24:20;;;;;;;15.20;9.23;;;;;;;;;;5015851;28;20463;-60
2023/06/09 06:26:45;;;;;;;12.00;9.50;;;;;;;;;;5033081;28;20627;-61
2023/06/09 06:29:10;;;;;;;13.30;8.47;;;;;;;;;;5008779;28;20034;-61
2023/06/09 06:31:35;;;;;;;11.67;8.60;;;;;;;;;;5024201;28;20104;-61
2023/06/09 06:34:01;;;;;;;14.50;10.02;;;;;;;;;;5013246;28;20141;-61
2023/06/09 06:36:26;;;;;;;11.60;8.77;;;;;;;;;;5023562;28;20028;-61
2023/06/09 06:38:51;;;;;;;11.88;8.85;;;;;;;;;;5034875;28;20540;-62
2023/06/09 06:41:16;;;;;;;15.13;9.67;;;;;;;;;;5019875;28;20087;-62
2023/06/09 06:43:42;;;;;;;14.83;8.80;;;;;;;;;;5012536;28;20026;-62
2023/06/09 06:46:07;;;;;;;13.00;8.73;;;;;;;;;;5017587;28;20366;-62
2023/06/09 06:48:32;;;;;;;12.20;8.55;;;;;;;;;;5013793;28;20025;-60
2023/06/09 06:50:57;;;;;;;12.87;8.90;;;;;;;;;;5026312;28;20112;-60
2023/06/09 06:53:23;;;;;;;13.93;9.37;;;;;;;;;;5032452;28;20110;-59
2023/06/09 06:55:48;;;;;;;14.60;8.83;;;;;;;;;;5026533;28;20043;-61
2023/06/09 06:58:13;;;;;;;12.98;9.45;;;;;;;;;;5020042;28;20091;-59
2023/06/09 07:00:39;;;;;;;14.20;9.98;;;;;;;;;;5021080;28;20474;-60
2023/06/09 07:03:04;;;;;;;12.50;7.97;;;;;;;;;;5017108;28;20063;-61
2023/06/09 07:05:29;;;;;;;11.25;8.95;;;;;;;;;;5027773;28;20037;-61
2023/06/09 07:07:55;;;;;;;11.93;9.25;;;;;;;;;;5033509;28;20063;-62
2023/06/09 07:10:20;;;;;;;14.00;10.13;;;;;;;;;;5050017;28;20052;-60
2023/06/09 07:12:45;;;;;;;12.07;8.93;;;;;;;;;;5050521;28;20028;-61
2023/06/09 07:15:10;;;;;;;12.85;8.38;;;;;;;;;;5040706;28;20014;-61
2023/06/09 07:17:35;;;;;;;13.17;9.13;;;;;;;;;;5025007;28;20036;-60
2023/06/09 07:20:01;;;;;;;13.77;10.03;;;;;;;;;;5029829;28;20075;-62
2023/06/09 07:22:26;;;;;;;13.80;9.27;;;;;;;;;;5030182;28;20025;-63
2023/06/09 07:24:51;;;;;;;12.30;9.38;;;;;;;;;;5030790;28;20548;-61
2023/06/09 07:27:17;;;;;;;11.07;8.30;;;;;;;;;;5030757;28;20022;-60
2023/06/09 07:29:42;;;;;;;10.93;8.32;;;;;;;;;;5024462;28;20069;-61
2023/06/09 07:32:08;;;;;;;15.63;9.65;;;;;;;;;;5027462;28;20037;-60
2023/06/09 07:34:33;;;;;;;12.65;9.85;;;;;;;;;;5030606;28;20108;-61
2023/06/09 07:36:59;;;;;;;11.75;9.15;;;;;;;;;;5030350;28;20381;-61
2023/06/09 07:39:24;;;;;;;12.43;9.85;;;;;;;;;;5029796;28;20024;-61
2023/06/09 07:41:50;;;;;;;11.15;9.35;;;;;;;;;;5030788;28;20026;-61
2023/06/09 07:44:15;;;;;;;11.77;8.68;;;;;;;;;;5030633;28;20037;-61
2023/06/09 07:46:40;;;;;;;13.40;9.90;;;;;;;;;;5022527;28;20033;-61
2023/06/09 07:49:06;;;;;;;15.77;9.82;;;;;;;;;;5024496;28;20121;-61
2023/06/09 07:51:36;;;;;;;12.47;9.10;;;;;;;;;;5024139;28;20018;-61
2023/06/09 07:54:02;;;;;;;12.95;9.20;;;;;;;;;;5010518;28;20026;-61
2023/06/09 07:56:27;;;;;;;11.48;9.05;;;;;;;;;;5010442;28;20100;-61
2023/06/09 07:58:52;;;;;;;10.27;8.73;;;;;;;;;;5010221;28;20037;-61
2023/06/09 08:01:17;;;;;;;12.57;10.00;;;;;;;;;;5010435;28;20041;-61
2023/06/09 08:03:43;;;;;;;10.98;8.00;;;;;;;;;;5021858;28;20044;-61
2023/06/09 08:06:08;;;;;;;12.15;8.95;;;;;;;;;;5030190;28;20393;-61
2023/06/09 08:08:34;;;;;;;11.60;9.05;;;;;;;;;;5028470;28;20067;-60
2023/06/09 08:10:59;;;;;;;12.52;9.77;;;;;;;;;;5011153;28;20061;-62
2023/06/09 08:13:24;;;;;;;13.53;10.23;;;;;;;;;;5033580;28;20046;-62
2023/06/09 08:15:49;;;;;;;12.03;10.10;;;;;;;;;;5034286;28;20524;-61
2023/06/09 08:18:15;;;;;;;16.02;9.15;;;;;;;;;;5033362;28;20024;-61
2023/06/09 08:20:40;;;;;;;13.27;8.38;;;;;;;;;;5032976;28;20393;-61
2023/06/09 08:23:07;;;;;;;12.82;9.02;;;;;;;;;;5027932;28;20767;-62
2023/06/09 08:25:32;;;;;;;12.88;9.27;;;;;;;;;;5033623;28;20366;-61
2023/06/09 08:27:57;;;;;;;11.30;8.77;;;;;;;;;;5033559;28;20024;-61
2023/06/09 08:30:22;;;;;;;12.68;9.25;;;;;;;;;;5032979;28;20116;-62
2023/06/09 08:32:49;;;;;;;12.47;9.37;;;;;;;;;;5033479;28;20075;-60
2023/06/09 08:35:14;;;;;;;;;;;;;;;;;;5034114;28;20021;-60
2023/06/09 08:37:39;;;;;;;11.00;8.48;;;;;;;;;;5029957;28;19955;-61
2023/06/09 08:40:07;;;;;;;14.18;9.65;;;;;;;;;;5032906;28;20017;-60
2023/06/09 08:42:33;;;;;;;11.93;9.43;;;;;;;;;;5033492;28;20639;-61
2023/06/09 08:45:03;;;;;;;12.15;8.80;;;;;;;;;;5033402;28;20013;-62
2023/06/09 08:47:29;;;;;;;15.82;10.82;;;;;;;;;;5033114;28;20033;-62
2023/06/09 08:49:57;;;;;;;12.30;8.98;;;;;;;;;;5032830;28;20071;-62
2023/06/09 08:52:26;;;;;;;12.10;9.50;;;;;;;;;;5026436;28;20022;-62
2023/06/09 08:54:53;;;;;;;13.23;9.65;;;;;;;;;;5031383;28;20037;-61
2023/06/09 08:57:18;;;;;;;;;;;;;;;;;;5033392;28;20053;-61
2023/06/09 08:59:44;;;;;;;13.85;10.02;;;;;;;;;;5032527;28;19947;-60
2023/06/09 09:02:11;;;;;;;13.02;10.27;;;;;;;;;;5032761;28;20051;-61
2023/06/09 09:04:38;;;;;;;;;;;;;;;;;;5028161;28;20484;-61
2023/06/09 09:07:03;;;;;;;13.05;8.95;;;;;;;;;;5025172;28;20381;-61
2023/06/09 09:09:28;;;;;;;11.63;9.40;;;;;;;;;;5027115;28;20120;-62
2023/06/09 09:11:57;;;;;;;11.40;9.18;;;;;;;;;;5032731;28;20029;-62
2023/06/09 09:14:22;;;;;;;10.98;8.70;;;;;;;;;;5032531;28;20022;-62
2023/06/09 09:16:47;;;;;;;14.07;9.88;;;;;;;;;;5032395;28;20028;-61
2023/06/09 09:19:12;;;;;;;12.32;8.75;;;;;;;;;;5028701;28;20038;-62
2023/06/09 09:21:38;;;;;;;;;;;;;;;;;;5023478;28;20022;-63
2023/06/09 09:24:04;;;;;;;13.18;9.43;;;;;;;;;;5032051;28;19909;-61
2023/06/09 09:26:29;;;;;;;;;;;;;;;;;;5033034;28;20109;-62
2023/06/09 09:28:56;;;;;;;12.68;9.07;;;;;;;;;;5032548;28;19984;-62
2023/06/09 09:31:21;;;;;;;10.85;8.57;;;;;;;;;;5032268;28;20421;-61
2023/06/09 09:33:47;;;;;;;10.95;8.10;;;;;;;;;;5032149;28;20112;-62
2023/06/09 09:36:12;;;;;;;12.07;8.23;;;;;;;;;;5026361;28;20025;-62
2023/06/09 09:38:42;;;;;;;14.90;8.50;;;;;;;;;;5032171;28;20017;-62
2023/06/09 09:41:12;;;;;;;10.82;7.95;;;;;;;;;;5031490;28;20054;-61
2023/06/09 09:43:39;;;;;;;10.35;7.80;;;;;;;;;;5032355;28;20347;-61
2023/06/09 09:46:05;;;;;;;10.38;8.18;;;;;;;;;;5026986;28;20025;-61
2023/06/09 09:48:30;;;;;;;12.60;8.40;;;;;;;;;;5033473;28;20481;-60
2023/06/09 09:50:55;;;;;;;;;;;;;;;;;;5024970;28;20021;-61
2023/06/09 09:53:23;;;;;;;9.20;7.10;;;;;;;;;;5031680;28;20295;-60
2023/06/09 09:55:50;;;;;;;7.38;5.03;;;;;;;;;;5032016;28;20017;-61
2023/06/09 09:58:15;;;;;;;9.35;4.97;;;;;;;;;;5026808;28;20010;-60
2023/06/09 10:00:41;;;;;;;8.30;4.47;;;;;;;;;;5026811;28;20029;-61
2023/06/09 10:03:14;;;;;;;7.25;4.45;;;;;;;;;;5024825;28;20033;-62
2023/06/09 10:05:42;;;;;;;8.40;4.93;;;;;;;;;;5018212;28;20508;-63
2023/06/09 10:08:09;;;;;;;8.65;5.30;;;;;;;;;;5030237;28;20021;-61
2023/06/09 10:10:34;;;;;;;7.80;4.97;;;;;;;;;;5030919;28;20029;-61
2023/06/09 10:13:00;;;;;;;;;;;;;;;;;;5031740;28;20017;-61
2023/06/09 10:15:25;;;;;;;8.10;4.95;;;;;;;;;;5031500;28;19905;-60
2023/06/09 10:17:54;;;;;;;8.40;4.87;;;;;;;;;;5031830;28;20083;-61
2023/06/09 10:20:19;;;;;;;7.03;4.53;;;;;;;;;;5029197;28;20013;-61
2023/06/09 10:22:46;;;;;;;8.48;4.68;;;;;;;;;;5031341;28;20361;-61
2023/06/09 10:25:11;;;;;;;;;;;;;;;;;;5031865;28;20029;-60
2023/06/09 10:27:36;;;;;;;7.07;4.47;;;;;;;;;;5031266;28;20478;-61
2023/06/09 10:30:01;;;;;;;;;;;;;;;;;;5027854;28;20041;-61
2023/06/09 10:32:29;;;;;;;7.63;4.40;;;;;;;;;;5023082;28;20009;-61
2023/06/09 10:34:55;;;;;;;8.05;4.72;;;;;;;;;;5028154;28;20393;-60
2023/06/09 10:37:27;;;;;;;7.05;5.13;;;;;;;;;;5031068;28;20029;-62
2023/06/09 10:39:57;;;;;;;7.57;4.25;;;;;;;;;;5030855;28;20100;-60
2023/06/09 10:42:32;;;;;;;7.65;5.18;;;;;;;;;;5030835;28;20016;-62
2023/06/09 10:45:05;;;;;;;7.57;4.95;;;;;;;;;;5029402;28;20029;-60
2023/06/09 10:47:40;;;;;;;8.57;4.82;;;;;;;;;;5024482;28;20021;-61
2023/06/09 10:50:05;;;;;;;7.00;5.03;;;;;;;;;;5030556;28;20018;-61
2023/06/09 10:52:30;;;;;;;;;;;;;;;;;;5031678;28;20512;-61
2023/06/09 10:55:15;;;;;;;8.02;5.05;;;;;;;;;;5030875;28;19949;-64
2023/06/09 10:57:41;;;;;;;8.70;5.07;;;;;;;;;;5030655;28;20052;-61
2023/06/09 11:00:11;;;;;;;6.10;4.40;;;;;;;;;;5022964;28;20025;-61
2023/06/09 11:02:40;;;;;;;7.63;5.30;;;;;;;;;;5030470;28;20023;-61
2023/06/09 11:05:05;;;;;;;7.05;5.28;;;;;;;;;;5030798;28;20013;-61
2023/06/09 11:07:32;;;;;;;;;;;;;;;;;;5030910;28;20473;-60
2023/06/09 11:09:58;;;;;;;8.05;5.15;;;;;;;;;;5030289;28;19928;-60
2023/06/09 11:12:23;;;;;;;;;;;;;;;;;;5029384;28;20017;-61
2023/06/09 11:14:51;;;;;;;7.78;4.53;;;;;;;;;;5030570;28;19912;-61
2023/06/09 11:17:17;;;;;;;7.80;5.20;;;;;;;;;;5031111;28;20022;-61
2023/06/09 11:19:42;;;;;;;;;;;;;;;;;;5030833;28;20017;-61
2023/06/09 11:22:11;;;;;;;7.45;5.40;;;;;;;;;;5030734;28;19905;-61
2023/06/09 11:24:49;;;;;;;10.02;5.30;;;;;;;;;;5031499;28;20111;-61
2023/06/09 11:27:17;;;;;;;6.93;4.80;;;;;;;;;;5027847;28;20048;-61
2023/06/09 11:29:43;;;;;;;6.63;4.22;;;;;;;;;;5025944;28;20021;-61
2023/06/09 11:32:08;;;;;;;;;;;;;;;;;;5020270;28;20504;-61
2023/06/09 11:34:51;;;;;;;7.25;4.55;;;;;;;;;;5010905;28;19909;-60
2023/06/09 11:37:17;;;;;;;6.93;4.13;;;;;;;;;;5010852;28;20116;-61
2023/06/09 11:39:42;;;;;;;;;;;;;;;;;;5010993;28;20582;-61
2023/06/09 11:42:07;;;;;;;7.60;4.72;;;;;;;;;;5010404;28;19906;-62
2023/06/09 11:44:32;;;;;;;;;;;;;;;;;;5018705;28;20026;-62
2023/06/09 11:46:57;;;;;;;7.93;4.50;;;;;;;;;;5031141;28;19927;-61
2023/06/09 11:49:22;;;;;;;;;;;;;;;;;;5034182;28;20477;-61
2023/06/09 11:51:58;;;;;;;8.23;4.40;;;;;;;;;;5034245;28;19913;-61
2023/06/09 11:54:42;;;;;;;6.97;4.18;;;;;;;;;;5027565;28;20489;-62
2023/06/09 11:57:09;;;;;;;7.80;4.10;;;;;;;;;;5033940;28;20025;-61
2023/06/09 11:59:34;;;;;;;6.97;4.03;;;;;;;;;;5022967;28;20108;-61
2023/06/09 12:01:59;;;;;;;;;;;;;;;;;;5034306;28;20101;-61
2023/06/09 12:04:24;;;;;;;8.75;4.32;;;;;;;;;;5034174;28;19909;-62
2023/06/09 12:06:50;;;;;;;7.27;4.40;;;;;;;;;;5033929;28;20065;-61
2023/06/09 12:09:15;;;;;;;6.53;4.05;;;;;;;;;;5033706;28;20480;-61
2023/06/09 12:11:40;;;;;;;;;;;;;;;;;;5032128;28;20488;-61
2023/06/09 12:14:07;;;;;;;6.28;3.83;;;;;;;;;;5033552;28;19913;-61
2023/06/09 12:16:32;;;;;;;6.07;3.95;;;;;;;;;;5032885;28;20029;-61
2023/06/09 12:18:57;;;;;;;;;;;;;;;;;;5031087;28;20048;-61
2023/06/09 12:21:22;;;;;;;6.90;3.83;;;;;;;;;;5023080;28;19909;-61
2023/06/09 12:23:47;;;;;;;;;;;;;;;;;;5033682;28;20477;-61
2023/06/09 12:26:20;;;;;;;6.85;4.15;;;;;;;;;;5033415;28;19913;-61
2023/06/09 12:28:52;;;;;;;8.05;4.28;;;;;;;;;;5033352;28;20108;-61
2023/06/09 12:31:18;;;;;;;6.25;3.97;;;;;;;;;;5035642;28;20021;-60
2023/06/09 12:33:52;;;;;;;7.00;4.00;;;;;;;;;;5024874;28;20627;-61
2023/06/09 12:36:18;;;;;;;7.80;4.20;;;;;;;;;;5033405;28;20072;-60
2023/06/09 12:38:48;;;;;;;6.68;3.88;;;;;;;;;;5032835;28;20476;-62
2023/06/09 12:41:14;;;;;;;6.35;3.80;;;;;;;;;;5032983;28;20092;-61
2023/06/09 12:43:39;;;;;;;;;;;;;;;;;;5033815;28;20038;-62
2023/06/09 12:46:04;;;;;;;5.53;3.65;;;;;;;;;;5028068;28;20109;-61
2023/06/09 12:48:29;;;;;;;6.72;4.15;;;;;;;;;;5032991;28;20355;-60
2023/06/09 12:50:56;;;;;;;6.30;4.10;;;;;;;;;;5032922;28;20030;-61
2023/06/09 12:53:21;;;;;;;6.47;3.85;;;;;;;;;;5033009;28;20112;-61
2023/06/09 12:55:46;;;;;;;;;;;;;;;;;;5033591;28;20452;-61
2023/06/09 12:58:11;;;;;;;6.53;3.80;;;;;;;;;;5032520;28;19905;-61
2023/06/09 13:00:38;;;;;;;6.05;3.95;;;;;;;;;;5032586;28;20046;-61
2023/06/09 13:03:03;;;;;;;;;;;;;;;;;;5029112;28;20039;-61
2023/06/09 13:05:32;;;;;;;7.63;3.92;;;;;;;;;;5033008;28;19906;-62
2023/06/09 13:07:58;;;;;;;13.25;3.97;;;;;;;;;;5032930;28;20024;-63
2023/06/09 13:10:23;;;;;;;;;;;;;;;;;;5032710;28;20021;-62
2023/06/09 13:12:50;;;;;;;5.80;3.50;;;;;;;;;;5032542;28;19905;-61
2023/06/09 13:15:15;;;;;;;5.90;3.20;;;;;;;;;;5033082;28;20053;-61
2023/06/09 13:17:41;;;;;;;6.47;3.20;;;;;;;;;;5020359;28;20037;-61
2023/06/09 13:20:06;;;;;;;6.60;3.33;;;;;;;;;;5031536;28;21277;-60
2023/06/09 13:22:31;;;;;;;5.65;3.00;;;;;;;;;;5032741;28;20032;-61
2023/06/09 13:24:56;;;;;;;;;;;;;;;;;;5033094;28;20465;-60
2023/06/09 13:27:21;;;;;;;5.47;2.97;;;;;;;;;;5026499;28;19917;-61
2023/06/09 13:29:46;;;;;;;7.65;2.95;;;;;;;;;;5031524;28;20543;-61
2023/06/09 13:32:11;;;;;;;6.10;2.63;;;;;;;;;;5028826;28;20018;-61
2023/06/09 13:34:37;;;;;;;6.68;2.97;;;;;;;;;;5036806;28;20033;-61
2023/06/09 13:37:02;;;;;;;5.00;2.97;;;;;;;;;;5033470;28;20083;-60
2023/06/09 13:39:27;;;;;;;5.37;2.70;;;;;;;;;;5036338;28;20017;-60
2023/06/09 13:41:52;;;;;;;5.80;2.80;;;;;;;;;;5031924;28;20021;-60
2023/06/09 13:44:18;;;;;;;6.60;3.00;;;;;;;;;;5023704;28;20010;-61
2023/06/09 13:46:43;;;;;;;6.05;2.95;;;;;;;;;;5030518;28;20033;-61
2023/06/09 13:49:08;;;;;;;5.10;3.00;;;;;;;;;;5020840;28;20492;-61
2023/06/09 13:51:35;;;;;;;6.15;3.03;;;;;;;;;;5030888;28;20117;-61
2023/06/09 13:54:01;;;;;;;6.07;2.90;;;;;;;;;;5012937;28;20075;-62
2023/06/09 13:56:26;;;;;;;;;;;;;;;;;;5018627;28;20101;-61
2023/06/09 13:58:51;;;;;;;5.78;3.13;;;;;;;;;;5011311;28;19905;-61
2023/06/09 14:01:16;;;;;;;5.43;3.07;;;;;;;;;;5016557;28;20056;-61
2023/06/09 14:03:41;;;;;;;8.00;3.67;;;;;;;;;;5019911;28;20022;-61
2023/06/09 14:06:06;;;;;;;;;;;;;;;;;;5029350;28;20822;-61
2023/06/09 14:08:32;;;;;;;6.90;3.33;;;;;;;;;;5031368;28;19911;-61
2023/06/09 14:10:57;;;;;;;5.20;3.10;;;;;;;;;;5017437;28;20026;-60
2023/06/09 14:13:22;;;;;;;6.10;3.55;;;;;;;;;;5011509;28;20018;-61
2023/06/09 14:15:47;;;;;;;;;;;;;;;;;;5019438;28;20018;-61
2023/06/09 14:18:13;;;;;;;5.85;3.60;;;;;;;;;;5025168;28;19913;-61
2023/06/09 14:20:38;;;;;;;6.22;3.80;;;;;;;;;;5031013;28;20028;-60
2023/06/09 14:23:08;;;;;;;;;;;;;;;;;;5027584;28;20018;-61
2023/06/09 14:25:33;;;;;;;7.50;4.00;;;;;;;;;;5031155;28;19916;-61
2023/06/09 14:27:58;;;;;;;;;;;;;;;;;;5030885;28;20017;-62
2023/06/09 14:30:25;;;;;;;6.45;3.65;;;;;;;;;;5030475;28;19905;-60
2023/06/09 14:32:51;;;;;;;6.35;3.70;;;;;;;;;;5031153;28;20056;-60
2023/06/09 14:35:20;;;;;;;7.28;3.80;;;;;;;;;;5022957;28;20050;-60
2023/06/09 14:37:49;;;;;;;7.75;3.70;;;;;;;;;;5030957;28;20458;-61